sensor_id;sensor_type;location;lat;lon;timestamp;temperature;humidity
33994;DHT22;20673;48.980;8.138;2023-05-14T00:00:15;12.20;99.90
33994;DHT22;20673;48.980;8.138;2023-05-14T00:02:42;12.20;99.90
33994;DHT22;20673;48.980;8.138;2023-05-14T00:05:08;12.10;99.90
33994;DHT22;20673;48.980;8.138;2023-05-14T00:07:34;12.10;99.90
33994;DHT22;20673;48.980;8.138;2023-05-14T00:10:01;12.00;99.90
33994;DHT22;20673;48.980;8.138;2023-05-14T00:12:27;12.00;99.90
33994;DHT22;20673;48.980;8.138;2023-05-14T00:14:54;11.90;99.90
33994;DHT22;20673;48.980;8.138;2023-05-14T00:17:21;11.90;99.90
33994;DHT22;20673;48.980;8.138;2023-05-14T00:19:47;12.00;99.90
33994;DHT22;20673;48.980;8.138;2023-05-14T00:22:14;12.00;99.90
33994;DHT22;20673;48.980;8.138;2023-05-14T00:24:40;11.80;99.90
33994;DHT22;20673;48.980;8.138;2023-05-14T00:27:06;11.70;99.90
33994;DHT22;20673;48.980;8.138;2023-05-14T00:29:33;11.60;99.90
33994;DHT22;20673;48.980;8.138;2023-05-14T00:31:59;11.70;99.90
33994;DHT22;20673;48.980;8.138;2023-05-14T00:34:26;11.60;99.90
33994;DHT22;20673;48.980;8.138;2023-05-14T00:36:52;11.50;99.90
33994;DHT22;20673;48.980;8.138;2023-05-14T00:39:18;11.50;99.90
33994;DHT22;20673;48.980;8.138;2023-05-14T00:41:44;11.50;99.90
33994;DHT22;20673;48.980;8.138;2023-05-14T00:44:10;11.40;99.90
33994;DHT22;20673;48.980;8.138;2023-05-14T00:46:37;11.40;99.90
33994;DHT22;20673;48.980;8.138;2023-05-14T00:49:03;11.30;99.90
33994;DHT22;20673;48.980;8.138;2023-05-14T00:51:29;11.30;99.90
33994;DHT22;20673;48.980;8.138;2023-05-14T00:53:56;11.10;99.90
33994;DHT22;20673;48.980;8.138;2023-05-14T00:56:22;11.10;99.90
33994;DHT22;20673;48.980;8.138;2023-05-14T00:58:49;11.10;99.90
33994;DHT22;20673;48.980;8.138;2023-05-14T01:01:15;11.10;99.90
33994;DHT22;20673;48.980;8.138;2023-05-14T01:03:43;11.10;99.90
33994;DHT22;20673;48.980;8.138;2023-05-14T01:15:00;11.60;99.90
33994;DHT22;20673;48.980;8.138;2023-05-14T01:17:28;11.60;99.90
33994;DHT22;20673;48.980;8.138;2023-05-14T01:19:57;11.70;99.90
33994;DHT22;20673;48.980;8.138;2023-05-14T01:22:25;11.80;99.90
33994;DHT22;20673;48.980;8.138;2023-05-14T01:24:51;11.80;99.90
33994;DHT22;20673;48.980;8.138;2023-05-14T01:27:29;11.90;99.90
33994;DHT22;20673;48.980;8.138;2023-05-14T01:30:35;11.90;99.90
33994;DHT22;20673;48.980;8.138;2023-05-14T01:33:12;11.90;99.90
33994;DHT22;20673;48.980;8.138;2023-05-14T01:35:41;12.00;99.90
33994;DHT22;20673;48.980;8.138;2023-05-14T01:38:11;12.10;99.90
33994;DHT22;20673;48.980;8.138;2023-05-14T01:40:40;12.10;99.90
33994;DHT22;20673;48.980;8.138;2023-05-14T01:43:07;12.10;99.90
33994;DHT22;20673;48.980;8.138;2023-05-14T01:45:34;12.20;99.90
33994;DHT22;20673;48.980;8.138;2023-05-14T01:48:01;12.20;99.90
33994;DHT22;20673;48.980;8.138;2023-05-14T01:50:28;12.20;99.90
33994;DHT22;20673;48.980;8.138;2023-05-14T01:52:55;12.20;99.90
33994;DHT22;20673;48.980;8.138;2023-05-14T01:55:21;12.20;99.90
33994;DHT22;20673;48.980;8.138;2023-05-14T01:57:51;12.20;99.90
33994;DHT22;20673;48.980;8.138;2023-05-14T02:00:18;12.20;99.90
33994;DHT22;20673;48.980;8.138;2023-05-14T02:02:45;12.20;99.90
33994;DHT22;20673;48.980;8.138;2023-05-14T02:05:11;12.20;99.90
33994;DHT22;20673;48.980;8.138;2023-05-14T02:07:38;12.20;99.90
33994;DHT22;20673;48.980;8.138;2023-05-14T02:10:05;12.30;99.90
33994;DHT22;20673;48.980;8.138;2023-05-14T02:12:32;12.20;99.90
33994;DHT22;20673;48.980;8.138;2023-05-14T02:14:58;12.30;99.90
33994;DHT22;20673;48.980;8.138;2023-05-14T02:17:25;12.20;99.90
33994;DHT22;20673;48.980;8.138;2023-05-14T02:19:51;12.30;99.90
33994;DHT22;20673;48.980;8.138;2023-05-14T02:22:17;12.20;99.90
33994;DHT22;20673;48.980;8.138;2023-05-14T02:24:43;12.20;99.90
33994;DHT22;20673;48.980;8.138;2023-05-14T02:27:10;12.20;99.90
33994;DHT22;20673;48.980;8.138;2023-05-14T02:29:37;12.30;99.90
33994;DHT22;20673;48.980;8.138;2023-05-14T02:32:04;12.20;99.90
33994;DHT22;20673;48.980;8.138;2023-05-14T02:34:30;12.30;99.90
33994;DHT22;20673;48.980;8.138;2023-05-14T02:36:58;12.30;99.90
33994;DHT22;20673;48.980;8.138;2023-05-14T02:39:25;12.30;99.90
33994;DHT22;20673;48.980;8.138;2023-05-14T02:41:51;12.30;99.90
33994;DHT22;20673;48.980;8.138;2023-05-14T02:44:17;12.30;99.90
33994;DHT22;20673;48.980;8.138;2023-05-14T02:46:44;12.30;99.90
33994;DHT22;20673;48.980;8.138;2023-05-14T02:49:10;12.40;99.90
33994;DHT22;20673;48.980;8.138;2023-05-14T02:51:36;12.40;99.90
33994;DHT22;20673;48.980;8.138;2023-05-14T02:54:02;12.40;99.90
33994;DHT22;20673;48.980;8.138;2023-05-14T02:56:28;12.30;99.90
33994;DHT22;20673;48.980;8.138;2023-05-14T02:58:54;12.40;99.90
33994;DHT22;20673;48.980;8.138;2023-05-14T03:01:21;12.30;99.90
33994;DHT22;20673;48.980;8.138;2023-05-14T03:03:47;12.40;99.90
33994;DHT22;20673;48.980;8.138;2023-05-14T03:06:14;12.40;99.90
33994;DHT22;20673;48.980;8.138;2023-05-14T03:08:40;12.40;99.90
33994;DHT22;20673;48.980;8.138;2023-05-14T03:11:06;12.30;99.90
33994;DHT22;20673;48.980;8.138;2023-05-14T03:13:32;12.30;99.90
33994;DHT22;20673;48.980;8.138;2023-05-14T03:15:58;12.30;99.90
33994;DHT22;20673;48.980;8.138;2023-05-14T03:18:24;12.20;99.90
33994;DHT22;20673;48.980;8.138;2023-05-14T03:20:52;12.30;99.90
33994;DHT22;20673;48.980;8.138;2023-05-14T03:23:19;12.30;99.90
33994;DHT22;20673;48.980;8.138;2023-05-14T03:25:45;12.30;99.90
33994;DHT22;20673;48.980;8.138;2023-05-14T03:28:11;12.20;99.90
33994;DHT22;20673;48.980;8.138;2023-05-14T03:30:37;12.20;99.90
33994;DHT22;20673;48.980;8.138;2023-05-14T03:33:04;12.20;99.90
33994;DHT22;20673;48.980;8.138;2023-05-14T03:35:30;12.20;99.90
33994;DHT22;20673;48.980;8.138;2023-05-14T03:37:57;12.20;99.90
33994;DHT22;20673;48.980;8.138;2023-05-14T03:40:24;12.20;99.90
33994;DHT22;20673;48.980;8.138;2023-05-14T03:42:50;12.20;99.90
33994;DHT22;20673;48.980;8.138;2023-05-14T03:45:16;12.20;99.90
33994;DHT22;20673;48.980;8.138;2023-05-14T03:47:43;12.20;99.90
33994;DHT22;20673;48.980;8.138;2023-05-14T03:50:09;12.20;99.90
33994;DHT22;20673;48.980;8.138;2023-05-14T03:52:35;12.10;99.90
33994;DHT22;20673;48.980;8.138;2023-05-14T03:55:02;12.20;99.90
33994;DHT22;20673;48.980;8.138;2023-05-14T03:57:28;12.10;99.90
33994;DHT22;20673;48.980;8.138;2023-05-14T03:59:55;12.20;99.90
33994;DHT22;20673;48.980;8.138;2023-05-14T04:02:21;12.20;99.90
33994;DHT22;20673;48.980;8.138;2023-05-14T04:04:47;12.20;99.90
33994;DHT22;20673;48.980;8.138;2023-05-14T04:07:13;12.20;99.90
33994;DHT22;20673;48.980;8.138;2023-05-14T04:09:39;12.20;99.90
33994;DHT22;20673;48.980;8.138;2023-05-14T04:12:06;12.20;99.90
33994;DHT22;20673;48.980;8.138;2023-05-14T04:14:33;12.30;99.90
33994;DHT22;20673;48.980;8.138;2023-05-14T04:16:59;12.30;99.90
33994;DHT22;20673;48.980;8.138;2023-05-14T04:19:25;12.40;99.90
33994;DHT22;20673;48.980;8.138;2023-05-14T04:21:51;12.50;99.90
33994;DHT22;20673;48.980;8.138;2023-05-14T04:24:17;12.50;99.90
33994;DHT22;20673;48.980;8.138;2023-05-14T04:26:43;12.50;99.90
33994;DHT22;20673;48.980;8.138;2023-05-14T04:29:09;12.60;99.90
33994;DHT22;20673;48.980;8.138;2023-05-14T04:31:36;12.60;99.90
33994;DHT22;20673;48.980;8.138;2023-05-14T04:34:02;12.70;99.90
33994;DHT22;20673;48.980;8.138;2023-05-14T04:36:28;12.80;99.90
33994;DHT22;20673;48.980;8.138;2023-05-14T04:38:54;12.90;99.90
33994;DHT22;20673;48.980;8.138;2023-05-14T04:41:21;12.90;99.90
33994;DHT22;20673;48.980;8.138;2023-05-14T04:43:48;13.00;99.90
33994;DHT22;20673;48.980;8.138;2023-05-14T04:46:15;13.00;99.90
33994;DHT22;20673;48.980;8.138;2023-05-14T04:48:41;13.10;99.90
33994;DHT22;20673;48.980;8.138;2023-05-14T04:51:07;13.10;99.90
33994;DHT22;20673;48.980;8.138;2023-05-14T04:53:34;13.20;99.90
33994;DHT22;20673;48.980;8.138;2023-05-14T04:56:00;13.20;99.90
33994;DHT22;20673;48.980;8.138;2023-05-14T04:58:26;13.20;99.90
33994;DHT22;20673;48.980;8.138;2023-05-14T05:00:53;13.40;99.90
33994;DHT22;20673;48.980;8.138;2023-05-14T05:03:19;13.40;99.90
33994;DHT22;20673;48.980;8.138;2023-05-14T05:05:46;13.60;99.90
33994;DHT22;20673;48.980;8.138;2023-05-14T05:08:12;13.60;99.90
33994;DHT22;20673;48.980;8.138;2023-05-14T05:10:38;13.70;99.90
33994;DHT22;20673;48.980;8.138;2023-05-14T05:13:04;13.80;99.90
33994;DHT22;20673;48.980;8.138;2023-05-14T05:15:30;13.80;99.90
33994;DHT22;20673;48.980;8.138;2023-05-14T05:17:57;13.80;99.90
33994;DHT22;20673;48.980;8.138;2023-05-14T05:20:23;13.90;99.90
33994;DHT22;20673;48.980;8.138;2023-05-14T05:22:50;14.00;99.90
33994;DHT22;20673;48.980;8.138;2023-05-14T05:25:16;14.00;99.90
33994;DHT22;20673;48.980;8.138;2023-05-14T05:27:42;14.00;99.90
33994;DHT22;20673;48.980;8.138;2023-05-14T05:30:09;14.10;99.90
33994;DHT22;20673;48.980;8.138;2023-05-14T05:32:36;14.20;99.90
33994;DHT22;20673;48.980;8.138;2023-05-14T05:35:02;14.30;99.90
33994;DHT22;20673;48.980;8.138;2023-05-14T05:37:29;14.30;99.90
33994;DHT22;20673;48.980;8.138;2023-05-14T05:39:55;14.30;99.90
33994;DHT22;20673;48.980;8.138;2023-05-14T05:42:21;14.40;99.90
33994;DHT22;20673;48.980;8.138;2023-05-14T05:44:47;14.40;99.90
33994;DHT22;20673;48.980;8.138;2023-05-14T05:47:14;14.40;99.90
33994;DHT22;20673;48.980;8.138;2023-05-14T05:49:40;14.50;99.90
33994;DHT22;20673;48.980;8.138;2023-05-14T05:52:06;14.60;99.90
33994;DHT22;20673;48.980;8.138;2023-05-14T05:54:33;14.60;99.90
33994;DHT22;20673;48.980;8.138;2023-05-14T05:56:59;14.60;99.90
33994;DHT22;20673;48.980;8.138;2023-05-14T05:59:25;14.60;99.90
33994;DHT22;20673;48.980;8.138;2023-05-14T06:01:51;14.50;99.90
33994;DHT22;20673;48.980;8.138;2023-05-14T06:04:18;14.40;99.90
33994;DHT22;20673;48.980;8.138;2023-05-14T06:06:44;14.40;99.90
33994;DHT22;20673;48.980;8.138;2023-05-14T06:09:10;14.30;99.90
33994;DHT22;20673;48.980;8.138;2023-05-14T06:11:37;14.40;99.90
33994;DHT22;20673;48.980;8.138;2023-05-14T06:14:04;14.50;99.90
33994;DHT22;20673;48.980;8.138;2023-05-14T06:16:30;14.70;99.90
33994;DHT22;20673;48.980;8.138;2023-05-14T06:18:56;14.80;99.90
33994;DHT22;20673;48.980;8.138;2023-05-14T06:21:22;14.70;99.90
33994;DHT22;20673;48.980;8.138;2023-05-14T06:23:48;14.60;99.90
33994;DHT22;20673;48.980;8.138;2023-05-14T06:26:14;14.60;99.90
33994;DHT22;20673;48.980;8.138;2023-05-14T06:28:41;14.60;99.90
33994;DHT22;20673;48.980;8.138;2023-05-14T06:31:07;14.60;99.90
33994;DHT22;20673;48.980;8.138;2023-05-14T06:33:33;14.70;99.90
33994;DHT22;20673;48.980;8.138;2023-05-14T06:36:01;14.60;99.90
33994;DHT22;20673;48.980;8.138;2023-05-14T06:38:31;14.60;99.90
33994;DHT22;20673;48.980;8.138;2023-05-14T06:40:57;14.60;99.90
33994;DHT22;20673;48.980;8.138;2023-05-14T06:43:23;14.60;99.90
33994;DHT22;20673;48.980;8.138;2023-05-14T06:45:50;14.60;99.90
33994;DHT22;20673;48.980;8.138;2023-05-14T06:48:17;14.70;99.90
33994;DHT22;20673;48.980;8.138;2023-05-14T06:50:45;14.70;99.90
33994;DHT22;20673;48.980;8.138;2023-05-14T06:53:14;14.70;99.90
33994;DHT22;20673;48.980;8.138;2023-05-14T06:55:41;14.80;99.90
33994;DHT22;20673;48.980;8.138;2023-05-14T06:58:07;15.00;99.90
33994;DHT22;20673;48.980;8.138;2023-05-14T07:00:34;14.90;99.90
33994;DHT22;20673;48.980;8.138;2023-05-14T07:03:00;14.90;99.90
33994;DHT22;20673;48.980;8.138;2023-05-14T07:05:26;14.80;99.90
33994;DHT22;20673;48.980;8.138;2023-05-14T07:07:53;14.90;99.90
33994;DHT22;20673;48.980;8.138;2023-05-14T07:10:19;15.10;99.90
33994;DHT22;20673;48.980;8.138;2023-05-14T07:12:46;15.30;99.90
33994;DHT22;20673;48.980;8.138;2023-05-14T07:15:13;15.50;99.90
33994;DHT22;20673;48.980;8.138;2023-05-14T07:17:40;15.70;99.90
33994;DHT22;20673;48.980;8.138;2023-05-14T07:20:07;15.90;99.90
33994;DHT22;20673;48.980;8.138;2023-05-14T07:22:34;16.10;99.90
33994;DHT22;20673;48.980;8.138;2023-05-14T07:25:00;16.40;99.90
33994;DHT22;20673;48.980;8.138;2023-05-14T07:27:27;16.40;99.90
33994;DHT22;20673;48.980;8.138;2023-05-14T07:29:53;16.70;99.90
33994;DHT22;20673;48.980;8.138;2023-05-14T07:32:19;16.70;99.90
33994;DHT22;20673;48.980;8.138;2023-05-14T07:34:45;16.80;99.90
33994;DHT22;20673;48.980;8.138;2023-05-14T07:37:12;16.60;99.90
33994;DHT22;20673;48.980;8.138;2023-05-14T07:39:38;16.50;99.90
33994;DHT22;20673;48.980;8.138;2023-05-14T07:42:06;16.40;99.90
33994;DHT22;20673;48.980;8.138;2023-05-14T07:44:32;16.40;99.90
33994;DHT22;20673;48.980;8.138;2023-05-14T07:46:58;16.40;99.90
33994;DHT22;20673;48.980;8.138;2023-05-14T07:49:24;16.20;99.90
33994;DHT22;20673;48.980;8.138;2023-05-14T07:51:50;16.00;99.90
33994;DHT22;20673;48.980;8.138;2023-05-14T07:54:17;15.90;99.90
33994;DHT22;20673;48.980;8.138;2023-05-14T07:56:43;15.90;99.90
33994;DHT22;20673;48.980;8.138;2023-05-14T07:59:09;16.10;99.90
33994;DHT22;20673;48.980;8.138;2023-05-14T08:01:35;16.10;99.90
33994;DHT22;20673;48.980;8.138;2023-05-14T08:04:01;16.00;99.90
33994;DHT22;20673;48.980;8.138;2023-05-14T08:06:27;16.00;99.90
33994;DHT22;20673;48.980;8.138;2023-05-14T08:08:54;15.90;99.90
33994;DHT22;20673;48.980;8.138;2023-05-14T08:11:20;15.90;99.90
33994;DHT22;20673;48.980;8.138;2023-05-14T08:13:46;15.90;99.90
33994;DHT22;20673;48.980;8.138;2023-05-14T08:16:13;16.00;99.90
33994;DHT22;20673;48.980;8.138;2023-05-14T08:18:39;16.00;99.90
33994;DHT22;20673;48.980;8.138;2023-05-14T08:21:05;16.10;99.90
33994;DHT22;20673;48.980;8.138;2023-05-14T08:23:31;16.40;99.90
33994;DHT22;20673;48.980;8.138;2023-05-14T08:25:58;16.50;99.90
33994;DHT22;20673;48.980;8.138;2023-05-14T08:28:24;16.50;99.90
33994;DHT22;20673;48.980;8.138;2023-05-14T08:30:50;16.60;99.90
33994;DHT22;20673;48.980;8.138;2023-05-14T08:33:17;16.60;99.90
33994;DHT22;20673;48.980;8.138;2023-05-14T08:35:43;17.00;99.90
33994;DHT22;20673;48.980;8.138;2023-05-14T08:38:09;17.30;99.90
33994;DHT22;20673;48.980;8.138;2023-05-14T08:40:35;17.60;99.90
33994;DHT22;20673;48.980;8.138;2023-05-14T08:43:02;17.90;99.90
33994;DHT22;20673;48.980;8.138;2023-05-14T08:45:30;18.00;99.90
33994;DHT22;20673;48.980;8.138;2023-05-14T08:47:58;18.10;99.90
33994;DHT22;20673;48.980;8.138;2023-05-14T08:50:33;18.20;99.90
33994;DHT22;20673;48.980;8.138;2023-05-14T08:53:00;18.00;99.90
33994;DHT22;20673;48.980;8.138;2023-05-14T08:55:27;17.90;99.90
33994;DHT22;20673;48.980;8.138;2023-05-14T08:57:54;17.90;99.90
33994;DHT22;20673;48.980;8.138;2023-05-14T09:00:21;18.10;99.90
33994;DHT22;20673;48.980;8.138;2023-05-14T09:02:48;18.50;99.90
33994;DHT22;20673;48.980;8.138;2023-05-14T09:05:16;19.00;99.90
33994;DHT22;20673;48.980;8.138;2023-05-14T09:07:44;19.50;99.90
33994;DHT22;20673;48.980;8.138;2023-05-14T09:10:10;20.00;99.90
33994;DHT22;20673;48.980;8.138;2023-05-14T09:12:37;20.20;99.90
33994;DHT22;20673;48.980;8.138;2023-05-14T09:15:04;20.40;99.90
33994;DHT22;20673;48.980;8.138;2023-05-14T09:17:32;20.50;99.90
33994;DHT22;20673;48.980;8.138;2023-05-14T09:19:59;20.20;99.90
33994;DHT22;20673;48.980;8.138;2023-05-14T09:22:28;20.10;99.90
33994;DHT22;20673;48.980;8.138;2023-05-14T09:25:04;20.00;99.90
33994;DHT22;20673;48.980;8.138;2023-05-14T09:27:36;20.40;99.90
33994;DHT22;20673;48.980;8.138;2023-05-14T09:30:08;20.40;99.90
33994;DHT22;20673;48.980;8.138;2023-05-14T09:32:41;20.60;99.90
33994;DHT22;20673;48.980;8.138;2023-05-14T09:35:22;20.40;99.90
33994;DHT22;20673;48.980;8.138;2023-05-14T09:37:51;20.10;99.90
33994;DHT22;20673;48.980;8.138;2023-05-14T09:40:20;19.70;99.90
33994;DHT22;20673;48.980;8.138;2023-05-14T09:42:47;19.50;99.90
33994;DHT22;20673;48.980;8.138;2023-05-14T09:45:14;19.30;99.90
33994;DHT22;20673;48.980;8.138;2023-05-14T09:47:41;19.30;99.90
33994;DHT22;20673;48.980;8.138;2023-05-14T09:50:09;18.90;99.90
33994;DHT22;20673;48.980;8.138;2023-05-14T09:52:36;19.00;99.90
33994;DHT22;20673;48.980;8.138;2023-05-14T09:55:04;19.10;99.90
33994;DHT22;20673;48.980;8.138;2023-05-14T09:57:31;19.00;99.90
33994;DHT22;20673;48.980;8.138;2023-05-14T09:59:58;19.30;99.90
33994;DHT22;20673;48.980;8.138;2023-05-14T10:02:26;19.40;99.90
33994;DHT22;20673;48.980;8.138;2023-05-14T10:05:01;19.40;99.90
33994;DHT22;20673;48.980;8.138;2023-05-14T10:07:41;19.50;99.90
33994;DHT22;20673;48.980;8.138;2023-05-14T10:10:08;19.60;99.90
33994;DHT22;20673;48.980;8.138;2023-05-14T10:12:38;19.70;99.90
33994;DHT22;20673;48.980;8.138;2023-05-14T10:15:14;20.00;99.90
33994;DHT22;20673;48.980;8.138;2023-05-14T10:17:43;20.20;99.90
33994;DHT22;20673;48.980;8.138;2023-05-14T10:20:14;20.10;99.90
33994;DHT22;20673;48.980;8.138;2023-05-14T10:22:43;20.00;99.90
33994;DHT22;20673;48.980;8.138;2023-05-14T10:25:10;20.60;99.90
33994;DHT22;20673;48.980;8.138;2023-05-14T10:27:36;20.90;99.90
33994;DHT22;20673;48.980;8.138;2023-05-14T10:30:05;21.10;99.90
33994;DHT22;20673;48.980;8.138;2023-05-14T10:32:36;21.10;99.90
33994;DHT22;20673;48.980;8.138;2023-05-14T10:35:14;21.00;99.90
33994;DHT22;20673;48.980;8.138;2023-05-14T10:37:43;21.50;99.90
33994;DHT22;20673;48.980;8.138;2023-05-14T10:40:11;21.90;99.90
33994;DHT22;20673;48.980;8.138;2023-05-14T10:42:38;21.70;99.90
33994;DHT22;20673;48.980;8.138;2023-05-14T10:45:07;21.40;99.90
33994;DHT22;20673;48.980;8.138;2023-05-14T10:47:45;21.30;99.90
33994;DHT22;20673;48.980;8.138;2023-05-14T10:50:12;21.30;99.90
33994;DHT22;20673;48.980;8.138;2023-05-14T10:52:41;21.40;99.90
33994;DHT22;20673;48.980;8.138;2023-05-14T10:55:11;21.90;99.90
33994;DHT22;20673;48.980;8.138;2023-05-14T10:57:42;22.10;99.90
33994;DHT22;20673;48.980;8.138;2023-05-14T11:00:11;22.10;99.90
33994;DHT22;20673;48.980;8.138;2023-05-14T11:02:40;22.40;99.90
33994;DHT22;20673;48.980;8.138;2023-05-14T11:05:15;23.00;99.90
33994;DHT22;20673;48.980;8.138;2023-05-14T11:07:47;22.90;99.90
33994;DHT22;20673;48.980;8.138;2023-05-14T11:10:14;22.60;99.90
33994;DHT22;20673;48.980;8.138;2023-05-14T11:12:48;22.30;99.90
33994;DHT22;20673;48.980;8.138;2023-05-14T11:15:17;22.30;99.90
33994;DHT22;20673;48.980;8.138;2023-05-14T11:17:46;23.00;99.90
33994;DHT22;20673;48.980;8.138;2023-05-14T11:20:13;23.60;99.90
33994;DHT22;20673;48.980;8.138;2023-05-14T11:22:42;23.40;99.90
33994;DHT22;20673;48.980;8.138;2023-05-14T11:25:11;22.80;99.90
33994;DHT22;20673;48.980;8.138;2023-05-14T11:27:42;22.70;99.90
33994;DHT22;20673;48.980;8.138;2023-05-14T11:30:14;22.40;99.90
33994;DHT22;20673;48.980;8.138;2023-05-14T11:32:46;22.30;99.90
33994;DHT22;20673;48.980;8.138;2023-05-14T11:35:13;21.90;99.90
33994;DHT22;20673;48.980;8.138;2023-05-14T11:37:41;22.10;99.90
33994;DHT22;20673;48.980;8.138;2023-05-14T11:40:13;22.40;99.90
33994;DHT22;20673;48.980;8.138;2023-05-14T11:42:41;22.20;99.90
33994;DHT22;20673;48.980;8.138;2023-05-14T11:45:10;22.50;99.90
33994;DHT22;20673;48.980;8.138;2023-05-14T11:47:37;23.20;99.90
33994;DHT22;20673;48.980;8.138;2023-05-14T11:50:05;23.70;99.90
33994;DHT22;20673;48.980;8.138;2023-05-14T11:52:38;24.00;99.90
33994;DHT22;20673;48.980;8.138;2023-05-14T11:55:10;23.70;99.90
33994;DHT22;20673;48.980;8.138;2023-05-14T11:57:37;23.90;99.90
33994;DHT22;20673;48.980;8.138;2023-05-14T12:00:06;24.00;99.90
33994;DHT22;20673;48.980;8.138;2023-05-14T12:02:35;24.40;99.90
33994;DHT22;20673;48.980;8.138;2023-05-14T12:05:04;24.40;99.90
33994;DHT22;20673;48.980;8.138;2023-05-14T12:07:36;23.90;99.90
33994;DHT22;20673;48.980;8.138;2023-05-14T12:10:04;22.90;99.90
33994;DHT22;20673;48.980;8.138;2023-05-14T12:12:37;22.70;99.90
33994;DHT22;20673;48.980;8.138;2023-05-14T12:15:12;22.80;99.90
33994;DHT22;20673;48.980;8.138;2023-05-14T12:17:40;23.00;99.90
33994;DHT22;20673;48.980;8.138;2023-05-14T12:20:08;22.90;99.90
33994;DHT22;20673;48.980;8.138;2023-05-14T12:22:39;22.80;99.90
33994;DHT22;20673;48.980;8.138;2023-05-14T12:25:11;23.20;99.90
33994;DHT22;20673;48.980;8.138;2023-05-14T12:27:38;23.30;99.90
33994;DHT22;20673;48.980;8.138;2023-05-14T12:30:05;23.80;99.90
33994;DHT22;20673;48.980;8.138;2023-05-14T12:32:33;24.20;99.90
33994;DHT22;20673;48.980;8.138;2023-05-14T12:35:00;23.70;99.90
33994;DHT22;20673;48.980;8.138;2023-05-14T12:37:27;23.80;99.90
33994;DHT22;20673;48.980;8.138;2023-05-14T12:39:53;24.00;99.90
33994;DHT22;20673;48.980;8.138;2023-05-14T12:42:19;24.00;99.90
33994;DHT22;20673;48.980;8.138;2023-05-14T12:44:46;24.20;99.90
33994;DHT22;20673;48.980;8.138;2023-05-14T12:47:13;24.30;99.90
33994;DHT22;20673;48.980;8.138;2023-05-14T12:49:41;24.10;99.90
33994;DHT22;20673;48.980;8.138;2023-05-14T12:52:08;23.90;99.90
33994;DHT22;20673;48.980;8.138;2023-05-14T12:54:34;24.10;99.90
33994;DHT22;20673;48.980;8.138;2023-05-14T12:57:00;24.40;99.90
33994;DHT22;20673;48.980;8.138;2023-05-14T12:59:28;24.70;99.90
33994;DHT22;20673;48.980;8.138;2023-05-14T13:01:54;24.30;99.90
33994;DHT22;20673;48.980;8.138;2023-05-14T13:04:20;23.90;99.90
33994;DHT22;20673;48.980;8.138;2023-05-14T13:06:47;24.10;99.90
33994;DHT22;20673;48.980;8.138;2023-05-14T13:09:13;24.20;99.90
33994;DHT22;20673;48.980;8.138;2023-05-14T13:11:39;23.60;99.90
33994;DHT22;20673;48.980;8.138;2023-05-14T13:14:05;23.60;99.90
33994;DHT22;20673;48.980;8.138;2023-05-14T13:16:31;24.00;99.90
33994;DHT22;20673;48.980;8.138;2023-05-14T13:18:58;24.00;99.90
33994;DHT22;20673;48.980;8.138;2023-05-14T13:21:24;23.50;99.90
33994;DHT22;20673;48.980;8.138;2023-05-14T13:23:50;23.60;99.90
33994;DHT22;20673;48.980;8.138;2023-05-14T13:26:17;23.20;99.90
33994;DHT22;20673;48.980;8.138;2023-05-14T13:28:43;23.50;99.90
33994;DHT22;20673;48.980;8.138;2023-05-14T13:31:11;23.50;99.90
33994;DHT22;20673;48.980;8.138;2023-05-14T13:33:41;23.80;99.90
33994;DHT22;20673;48.980;8.138;2023-05-14T13:36:09;23.40;99.90
33994;DHT22;20673;48.980;8.138;2023-05-14T13:38:36;23.80;99.90
33994;DHT22;20673;48.980;8.138;2023-05-14T13:41:03;23.90;99.90
33994;DHT22;20673;48.980;8.138;2023-05-14T13:43:31;24.30;99.90
33994;DHT22;20673;48.980;8.138;2023-05-14T13:45:58;24.50;99.90
33994;DHT22;20673;48.980;8.138;2023-05-14T13:48:25;24.10;99.90
33994;DHT22;20673;48.980;8.138;2023-05-14T13:50:52;24.40;99.90
33994;DHT22;20673;48.980;8.138;2023-05-14T13:53:19;24.60;99.90
33994;DHT22;20673;48.980;8.138;2023-05-14T13:55:47;24.70;99.90
33994;DHT22;20673;48.980;8.138;2023-05-14T13:58:14;24.60;99.90
33994;DHT22;20673;48.980;8.138;2023-05-14T14:00:41;24.50;99.90
33994;DHT22;20673;48.980;8.138;2023-05-14T14:03:07;24.70;99.90
33994;DHT22;20673;48.980;8.138;2023-05-14T14:05:34;24.50;99.90
33994;DHT22;20673;48.980;8.138;2023-05-14T14:08:01;24.70;99.90
33994;DHT22;20673;48.980;8.138;2023-05-14T14:10:27;24.20;99.90
33994;DHT22;20673;48.980;8.138;2023-05-14T14:12:53;24.40;99.90
33994;DHT22;20673;48.980;8.138;2023-05-14T14:15:20;24.60;99.90
33994;DHT22;20673;48.980;8.138;2023-05-14T14:17:46;24.70;99.90
33994;DHT22;20673;48.980;8.138;2023-05-14T14:20:13;24.70;99.90
33994;DHT22;20673;48.980;8.138;2023-05-14T14:22:42;24.50;99.90
33994;DHT22;20673;48.980;8.138;2023-05-14T14:25:09;23.70;99.90
33994;DHT22;20673;48.980;8.138;2023-05-14T14:27:38;23.20;99.90
33994;DHT22;20673;48.980;8.138;2023-05-14T14:30:08;23.40;99.90
33994;DHT22;20673;48.980;8.138;2023-05-14T14:32:37;23.60;99.90
33994;DHT22;20673;48.980;8.138;2023-05-14T14:35:03;23.80;99.90
33994;DHT22;20673;48.980;8.138;2023-05-14T14:37:30;23.90;99.90
33994;DHT22;20673;48.980;8.138;2023-05-14T14:39:56;24.30;99.90
33994;DHT22;20673;48.980;8.138;2023-05-14T14:42:22;24.40;99.90
33994;DHT22;20673;48.980;8.138;2023-05-14T14:44:49;24.30;99.90
33994;DHT22;20673;48.980;8.138;2023-05-14T14:47:15;24.40;99.90
33994;DHT22;20673;48.980;8.138;2023-05-14T14:49:41;24.60;99.90
33994;DHT22;20673;48.980;8.138;2023-05-14T14:52:07;24.90;99.90
33994;DHT22;20673;48.980;8.138;2023-05-14T14:54:34;24.50;99.90
33994;DHT22;20673;48.980;8.138;2023-05-14T14:57:00;23.70;99.90
33994;DHT22;20673;48.980;8.138;2023-05-14T14:59:26;23.20;99.90
33994;DHT22;20673;48.980;8.138;2023-05-14T15:01:52;23.20;99.90
33994;DHT22;20673;48.980;8.138;2023-05-14T15:04:18;23.80;99.90
33994;DHT22;20673;48.980;8.138;2023-05-14T15:06:44;24.00;99.90
33994;DHT22;20673;48.980;8.138;2023-05-14T15:09:11;23.50;99.90
33994;DHT22;20673;48.980;8.138;2023-05-14T15:11:37;23.20;99.90
33994;DHT22;20673;48.980;8.138;2023-05-14T15:14:03;22.80;99.90
33994;DHT22;20673;48.980;8.138;2023-05-14T15:16:29;22.10;99.90
33994;DHT22;20673;48.980;8.138;2023-05-14T15:18:55;21.90;99.90
33994;DHT22;20673;48.980;8.138;2023-05-14T15:21:22;21.60;99.90
33994;DHT22;20673;48.980;8.138;2023-05-14T15:23:48;21.90;99.90
33994;DHT22;20673;48.980;8.138;2023-05-14T15:26:14;22.40;99.90
33994;DHT22;20673;48.980;8.138;2023-05-14T15:28:41;22.20;99.90
33994;DHT22;20673;48.980;8.138;2023-05-14T15:31:08;21.90;99.90
33994;DHT22;20673;48.980;8.138;2023-05-14T15:33:34;21.40;99.90
33994;DHT22;20673;48.980;8.138;2023-05-14T15:36:01;21.10;99.90
33994;DHT22;20673;48.980;8.138;2023-05-14T15:38:27;20.80;99.90